Time;durP1;ratioP1;P1;durP2;ratioP2;P2;SDS_P1;SDS_P2;PMS_P1;PMS_P2;Temp;Humidity;BMP_temperature;BMP_pressure;BME280_temperature;BME280_humidity;BME280_pressure;Samples;Min_cycle;Max_cycle;Signal;HPM_P1;HPM_P2
2023/11/24 00:02:24;;;;;;;5.47;3.92;;;6.40;99.90;;;;;;5044838;28;20029;-77
2023/11/24 00:04:49;;;;;;;5.00;4.30;;;6.40;99.90;;;;;;5047960;28;20356;-79
2023/11/24 00:07:17;;;;;;;4.88;4.25;;;6.40;99.90;;;;;;5049366;28;20116;-78
2023/11/24 00:09:44;;;;;;;4.30;3.38;;;6.30;99.90;;;;;;5046989;28;20037;-78
2023/11/24 00:12:10;;;;;;;4.90;4.20;;;6.30;99.90;;;;;;5050267;28;20072;-79
2023/11/24 00:14:36;;;;;;;9.07;3.70;;;6.40;99.90;;;;;;5047515;28;20094;-78
2023/11/24 00:17:04;;;;;;;4.47;3.60;;;6.40;99.90;;;;;;5046872;28;20033;-77
2023/11/24 00:19:30;;;;;;;6.03;4.05;;;6.40;99.90;;;;;;5050543;28;20037;-78
2023/11/24 00:21:56;;;;;;;4.97;3.83;;;6.40;99.90;;;;;;5056336;28;20037;-78
2023/11/24 00:24:23;;;;;;;4.35;3.67;;;6.40;99.90;;;;;;5044366;28;20572;-77
2023/11/24 00:26:51;;;;;;;4.43;3.55;;;6.40;99.90;;;;;;5049655;28;20041;-78
2023/11/24 00:29:17;;;;;;;4.15;3.75;;;6.50;99.90;;;;;;5054614;28;20050;-76
2023/11/24 00:31:43;;;;;;;4.88;4.35;;;6.50;99.90;;;;;;5046703;28;20060;-77
2023/11/24 00:34:09;;;;;;;4.40;4.00;;;6.50;99.90;;;;;;5028990;28;20029;-77
2023/11/24 00:36:35;;;;;;;4.68;4.10;;;6.50;99.90;;;;;;5048877;28;20056;-78
2023/11/24 00:39:01;;;;;;;6.03;4.25;;;6.50;99.90;;;;;;5051184;28;20036;-79
2023/11/24 00:41:28;;;;;;;4.70;4.13;;;6.50;99.90;;;;;;5058137;28;20033;-78
2023/11/24 00:43:54;;;;;;;4.30;3.65;;;6.50;99.90;;;;;;5047335;28;20127;-77
2023/11/24 00:46:21;;;;;;;4.35;3.90;;;6.60;99.90;;;;;;5055362;28;20055;-77
2023/11/24 00:48:47;;;;;;;5.90;4.28;;;6.60;99.90;;;;;;5052533;28;20029;-76
2023/11/24 00:51:14;;;;;;;4.20;3.50;;;6.60;99.90;;;;;;5057337;28;20039;-78
2023/11/24 00:53:41;;;;;;;5.15;4.00;;;6.60;99.90;;;;;;5053965;28;20036;-77
2023/11/24 00:56:16;;;;;;;6.03;4.20;;;6.70;99.90;;;;;;5043859;28;20171;-79
2023/11/24 00:58:43;;;;;;;7.97;4.07;;;6.70;99.90;;;;;;5021335;28;20514;-79
2023/11/24 01:01:11;;;;;;;3.97;3.42;;;6.60;99.90;;;;;;5059543;28;20033;-81
2023/11/24 01:03:40;;;;;;;4.82;3.63;;;6.60;99.90;;;;;;5051740;28;20028;-77
2023/11/24 01:06:07;;;;;;;4.80;4.28;;;6.60;99.90;;;;;;5049874;28;20033;-79
2023/11/24 01:08:32;;;;;;;4.38;3.95;;;6.60;99.90;;;;;;5050670;28;20040;-77
2023/11/24 01:10:58;;;;;;;4.70;3.65;;;6.70;99.90;;;;;;5062614;28;20422;-79
2023/11/24 01:13:24;;;;;;;4.82;4.30;;;6.70;99.90;;;;;;5067586;28;20057;-79
2023/11/24 01:15:51;;;;;;;4.90;4.40;;;6.70;99.90;;;;;;5050394;28;20083;-78
2023/11/24 01:18:18;;;;;;;4.95;4.00;;;6.70;99.90;;;;;;5050971;28;20104;-77
2023/11/24 01:20:45;;;;;;;5.18;3.72;;;6.70;99.90;;;;;;5051964;28;20062;-77
2023/11/24 01:23:10;;;;;;;4.40;3.88;;;6.70;99.90;;;;;;5057397;28;20033;-79
2023/11/24 01:25:36;;;;;;;6.35;3.63;;;6.70;99.90;;;;;;5053259;28;20125;-78
2023/11/24 01:28:03;;;;;;;4.25;3.53;;;6.70;99.90;;;;;;5056994;28;20048;-80
2023/11/24 01:30:29;;;;;;;4.03;3.63;;;6.70;99.90;;;;;;5055077;28;20037;-77
2023/11/24 01:32:55;;;;;;;3.50;3.20;;;6.70;99.90;;;;;;5055880;28;20032;-77
2023/11/24 01:35:21;;;;;;;7.38;3.92;;;6.70;99.90;;;;;;5064128;28;20414;-78
2023/11/24 01:37:47;;;;;;;3.80;3.42;;;6.70;99.90;;;;;;5041920;28;20034;-77
2023/11/24 01:40:17;;;;;;;4.05;3.65;;;6.70;99.90;;;;;;5057092;28;20575;-78
2023/11/24 01:42:43;;;;;;;5.55;3.63;;;6.70;99.90;;;;;;5061445;28;20437;-79
2023/11/24 01:45:10;;;;;;;4.40;4.00;;;6.60;99.90;;;;;;5057125;28;20029;-79
2023/11/24 01:47:37;;;;;;;4.40;3.85;;;6.60;99.90;;;;;;5031235;28;20523;-79
2023/11/24 01:50:03;;;;;;;4.68;3.70;;;6.60;99.90;;;;;;5058912;28;20116;-81
2023/11/24 01:52:30;;;;;;;4.00;3.20;;;6.60;99.90;;;;;;5054081;28;20020;-80
2023/11/24 01:54:57;;;;;;;4.28;3.13;;;6.60;99.90;;;;;;5050486;28;20041;-80
2023/11/24 01:57:23;;;;;;;5.65;3.40;;;6.60;99.90;;;;;;5048072;28;20037;-80
2023/11/24 01:59:49;;;;;;;3.60;3.00;;;6.60;99.90;;;;;;5045441;28;20779;-80
2023/11/24 02:02:15;;;;;;;4.13;3.08;;;6.50;99.90;;;;;;5047279;28;20025;-82
2023/11/24 02:04:41;;;;;;;4.15;3.10;;;6.60;99.90;;;;;;5049542;28;20651;-82
2023/11/24 02:07:09;;;;;;;4.15;2.72;;;6.50;99.90;;;;;;5048951;28;20045;-81
2023/11/24 02:09:35;;;;;;;23.30;3.30;;;6.50;99.90;;;;;;5046150;28;20504;-81
2023/11/24 02:12:01;;;;;;;2.80;2.25;;;6.50;99.90;;;;;;5050304;28;20036;-81
2023/11/24 02:14:28;;;;;;;3.53;2.40;;;6.50;99.90;;;;;;5049653;28;20030;-81
2023/11/24 02:16:54;;;;;;;2.38;1.58;;;6.50;99.90;;;;;;5045417;28;20038;-81
2023/11/24 02:19:20;;;;;;;56.97;3.85;;;6.40;99.90;;;;;;5048486;28;20031;-82
2023/11/24 02:21:45;;;;;;;9.38;1.63;;;6.50;99.90;;;;;;5045964;28;20025;-82
2023/11/24 02:24:12;;;;;;;1.70;1.35;;;6.50;99.90;;;;;;5034936;28;20044;-82
2023/11/24 02:26:37;;;;;;;1.33;1.23;;;6.40;99.90;;;;;;5035293;28;20510;-83
2023/11/24 02:29:03;;;;;;;4.90;1.30;;;6.50;99.90;;;;;;5044752;28;20037;-84
2023/11/24 02:31:32;;;;;;;0.98;0.93;;;6.40;99.90;;;;;;5053058;28;20038;-83
2023/11/24 02:33:58;;;;;;;1.80;1.30;;;6.40;99.90;;;;;;5037505;28;20081;-82
2023/11/24 02:36:27;;;;;;;12.93;1.48;;;6.30;99.90;;;;;;5035847;28;20176;-83
2023/11/24 02:38:54;;;;;;;6.63;1.20;;;6.30;99.90;;;;;;5048667;28;20065;-82
2023/11/24 02:41:24;;;;;;;76.15;3.20;;;6.20;99.90;;;;;;5055605;28;20018;-82
2023/11/24 02:43:50;;;;;;;0.60;0.50;;;6.20;99.90;;;;;;5046420;28;20033;-81
2023/11/24 02:46:16;;;;;;;2.10;0.52;;;6.20;99.90;;;;;;5039005;28;20032;-81
2023/11/24 02:48:43;;;;;;;2.05;0.50;;;6.20;99.90;;;;;;5043340;28;20128;-82
2023/11/24 02:51:10;;;;;;;3.65;0.65;;;6.20;99.90;;;;;;5060982;28;20116;-82
2023/11/24 02:53:39;;;;;;;2.17;0.40;;;6.20;99.90;;;;;;5054106;28;20036;-81
2023/11/24 02:56:06;;;;;;;0.73;0.20;;;6.20;99.90;;;;;;5050881;28;20033;-81
2023/11/24 02:58:32;;;;;;;2.25;0.38;;;6.10;99.90;;;;;;5048567;28;20121;-82
2023/11/24 03:00:59;;;;;;;3.00;0.52;;;6.10;99.90;;;;;;5051820;28;20115;-81
2023/11/24 03:03:26;;;;;;;1.33;0.38;;;6.00;99.90;;;;;;5039575;28;20021;-81
2023/11/24 03:05:52;;;;;;;1.70;0.22;;;6.00;99.90;;;;;;5053378;28;20032;-81
2023/11/24 03:08:19;;;;;;;0.57;0.30;;;5.90;99.90;;;;;;5052558;28;20079;-81
2023/11/24 03:10:45;;;;;;;0.30;0.10;;;5.80;99.90;;;;;;5053564;28;20017;-81
2023/11/24 03:13:13;;;;;;;1.65;0.30;;;5.70;99.90;;;;;;5052718;28;20104;-81
2023/11/24 03:15:40;;;;;;;2.05;0.20;;;5.70;99.90;;;;;;5048746;28;20038;-81
2023/11/24 03:18:06;;;;;;;2.55;0.43;;;5.70;99.90;;;;;;5047687;28;20171;-81
2023/11/24 03:20:32;;;;;;;0.25;0.13;;;5.60;99.90;;;;;;5046571;28;20050;-81
2023/11/24 03:22:58;;;;;;;0.40;0.10;;;5.50;99.90;;;;;;5046250;28;20081;-81
2023/11/24 03:25:24;;;;;;;25.70;1.20;;;5.50;99.90;;;;;;5037834;28;20033;-80
2023/11/24 03:27:51;;;;;;;1.55;0.10;;;5.40;99.90;;;;;;5040710;28;20025;-81
2023/11/24 03:30:17;;;;;;;1.35;0.20;;;5.40;99.90;;;;;;5032521;28;20097;-80
2023/11/24 03:32:43;;;;;;;2.97;0.17;;;5.40;99.90;;;;;;5052667;28;20123;-80
2023/11/24 03:35:09;;;;;;;1.65;0.10;;;5.30;99.90;;;;;;5051086;28;20032;-80
2023/11/24 03:37:35;;;;;;;1.70;0.22;;;5.30;99.90;;;;;;5053271;28;20040;-80
2023/11/24 03:40:02;;;;;;;1.00;0.30;;;5.20;99.90;;;;;;5044070;28;20088;-80
2023/11/24 03:42:27;;;;;;;1.13;0.30;;;5.20;99.90;;;;;;5040534;28;20108;-79
2023/11/24 03:44:53;;;;;;;1.85;0.28;;;5.20;99.90;;;;;;5035575;28;20448;-79
2023/11/24 03:47:19;;;;;;;3.10;0.60;;;5.10;99.90;;;;;;5045270;28;20323;-80
2023/11/24 03:49:45;;;;;;;1.42;0.40;;;5.00;99.90;;;;;;5053203;28;20057;-80
2023/11/24 03:52:10;;;;;;;4.40;0.55;;;5.00;99.90;;;;;;5044349;28;20037;-80
2023/11/24 03:54:36;;;;;;;1.75;0.25;;;4.90;99.90;;;;;;5048406;28;20492;-79
2023/11/24 03:57:02;;;;;;;1.88;0.30;;;4.80;99.90;;;;;;5040166;28;20041;-79
2023/11/24 03:59:28;;;;;;;7.03;0.82;;;4.80;99.90;;;;;;5045491;28;20031;-79
2023/11/24 04:01:54;;;;;;;3.67;0.30;;;4.70;99.90;;;;;;5045957;28;20032;-79
2023/11/24 04:04:20;;;;;;;17.08;0.90;;;4.70;99.90;;;;;;5044754;28;20053;-79
2023/11/24 04:06:46;;;;;;;5.63;0.30;;;4.60;99.90;;;;;;5049990;28;20043;-79
2023/11/24 04:09:12;;;;;;;4.47;0.40;;;4.60;99.90;;;;;;5053092;28;20482;-79
2023/11/24 04:11:38;;;;;;;3.90;0.63;;;4.60;99.90;;;;;;5048330;28;20033;-78
2023/11/24 04:14:04;;;;;;;32.67;1.60;;;4.60;99.90;;;;;;5048603;28;20028;-79
2023/11/24 04:16:30;;;;;;;6.95;0.45;;;4.60;99.90;;;;;;5052682;28;20103;-79
2023/11/24 04:18:56;;;;;;;1.95;0.40;;;4.60;99.90;;;;;;5050725;28;20029;-79
2023/11/24 04:21:22;;;;;;;12.00;1.00;;;4.50;99.90;;;;;;5051110;28;20021;-79
2023/11/24 04:23:50;;;;;;;6.82;0.50;;;4.50;99.90;;;;;;5050014;28;20060;-79
2023/11/24 04:26:16;;;;;;;1.42;0.32;;;4.40;99.90;;;;;;5046236;28;20084;-79
2023/11/24 04:28:42;;;;;;;16.85;0.77;;;4.40;99.90;;;;;;5049577;28;20036;-79
2023/11/24 04:31:07;;;;;;;19.27;0.98;;;4.40;99.90;;;;;;5051144;28;20044;-79
2023/11/24 04:33:33;;;;;;;20.83;0.90;;;4.40;99.90;;;;;;5051382;28;20420;-79
2023/11/24 04:35:59;;;;;;;1.55;0.30;;;4.40;99.90;;;;;;5049768;28;20045;-78
2023/11/24 04:38:25;;;;;;;7.38;0.68;;;4.40;99.90;;;;;;5050522;28;20070;-78
2023/11/24 04:40:51;;;;;;;1.80;0.25;;;4.40;99.90;;;;;;5052995;28;20040;-79
2023/11/24 04:43:18;;;;;;;8.75;0.40;;;4.40;99.90;;;;;;5050519;28;20040;-80
2023/11/24 04:45:44;;;;;;;4.43;0.50;;;4.40;99.90;;;;;;5052159;28;20025;-79
2023/11/24 04:48:12;;;;;;;8.35;0.40;;;4.40;99.90;;;;;;5054424;28;20564;-78
2023/11/24 04:50:38;;;;;;;2.75;0.30;;;4.30;99.90;;;;;;5044858;28;20052;-79
2023/11/24 04:53:04;;;;;;;11.20;1.33;;;4.30;99.90;;;;;;5053052;28;20093;-79
2023/11/24 04:55:30;;;;;;;7.13;0.40;;;4.30;99.90;;;;;;5046430;28;20032;-79
2023/11/24 04:57:55;;;;;;;115.82;4.25;;;4.30;99.90;;;;;;5043181;28;20551;-79
2023/11/24 05:00:21;;;;;;;2.85;0.30;;;4.20;99.90;;;;;;5043134;28;20037;-79
2023/11/24 05:02:47;;;;;;;5.50;0.50;;;4.20;99.90;;;;;;5060414;28;20031;-79
2023/11/24 05:05:13;;;;;;;10.13;0.70;;;4.20;99.90;;;;;;5049496;28;20586;-78
2023/11/24 05:07:39;;;;;;;6.25;0.90;;;4.20;99.90;;;;;;5052239;28;20039;-79
2023/11/24 05:10:07;;;;;;;4.13;0.80;;;4.20;99.90;;;;;;5052281;28;20107;-79
2023/11/24 05:12:34;;;;;;;7.55;0.63;;;4.20;99.90;;;;;;5052357;28;20040;-79
2023/11/24 05:15:02;;;;;;;46.40;2.10;;;4.20;99.90;;;;;;5056722;28;20102;-79
2023/11/24 05:17:27;;;;;;;4.22;0.50;;;4.10;99.90;;;;;;5050155;28;20438;-80
2023/11/24 05:19:53;;;;;;;3.95;0.32;;;4.20;99.90;;;;;;5053550;28;20025;-79
2023/11/24 05:22:19;;;;;;;6.07;0.50;;;4.10;99.90;;;;;;5030948;28;20403;-79
2023/11/24 05:24:45;;;;;;;2.97;0.47;;;4.10;99.90;;;;;;5047590;28;20029;-79
2023/11/24 05:27:10;;;;;;;7.15;0.57;;;4.10;99.90;;;;;;5051007;28;20025;-79
2023/11/24 05:29:36;;;;;;;4.35;0.40;;;4.10;99.90;;;;;;5045351;28;20400;-79
2023/11/24 05:32:02;;;;;;;5.38;0.50;;;4.00;99.90;;;;;;5039286;28;20116;-79
2023/11/24 05:34:28;;;;;;;3.30;0.60;;;4.00;99.90;;;;;;5060271;28;20038;-79
2023/11/24 05:36:55;;;;;;;5.22;0.70;;;3.90;99.90;;;;;;5050226;28;20041;-79
2023/11/24 05:39:21;;;;;;;3.35;0.30;;;3.90;99.90;;;;;;5051681;28;20715;-79
2023/11/24 05:41:46;;;;;;;9.45;0.80;;;3.90;99.90;;;;;;5041543;28;20026;-78
2023/11/24 05:44:15;;;;;;;7.40;0.80;;;3.80;99.90;;;;;;5050885;28;20025;-79
2023/11/24 05:46:41;;;;;;;7.32;0.70;;;3.80;99.90;;;;;;5050817;28;20035;-79
2023/11/24 05:49:06;;;;;;;4.85;0.55;;;3.70;99.90;;;;;;5046786;28;20408;-79
2023/11/24 05:51:32;;;;;;;3.58;0.80;;;3.60;99.90;;;;;;5056306;28;20102;-79
2023/11/24 05:53:58;;;;;;;6.75;0.65;;;3.50;99.90;;;;;;5051514;28;20394;-79
2023/11/24 05:56:24;;;;;;;7.40;0.70;;;3.50;99.90;;;;;;5057663;28;20043;-79
2023/11/24 05:58:51;;;;;;;11.95;0.80;;;3.40;99.90;;;;;;5045953;28;20029;-79
2023/11/24 06:01:20;;;;;;;20.52;1.13;;;3.40;99.90;;;;;;5051056;28;20037;-79
2023/11/24 06:03:46;;;;;;;5.00;0.52;;;3.30;99.90;;;;;;5053760;28;20026;-79
2023/11/24 06:06:12;;;;;;;4.47;0.60;;;3.30;99.90;;;;;;5046516;28;20779;-79
2023/11/24 06:08:38;;;;;;;10.38;0.90;;;3.20;99.90;;;;;;5052844;28;20027;-80
2023/11/24 06:11:03;;;;;;;18.85;1.10;;;3.20;99.90;;;;;;5048040;28;20148;-81
2023/11/24 06:13:29;;;;;;;2.88;0.70;;;3.20;99.90;;;;;;5049036;28;20067;-79
2023/11/24 06:15:58;;;;;;;2.15;0.40;;;3.20;99.90;;;;;;5060940;28;20099;-80
2023/11/24 06:18:25;;;;;;;3.03;0.50;;;3.10;99.90;;;;;;5060505;28;20167;-80
2023/11/24 06:20:51;;;;;;;5.70;0.73;;;3.10;99.90;;;;;;5068042;28;20037;-79
2023/11/24 06:23:17;;;;;;;4.00;0.47;;;3.00;99.90;;;;;;5058531;28;20033;-80
2023/11/24 06:25:43;;;;;;;7.50;0.70;;;3.00;99.90;;;;;;5061873;28;20028;-80
2023/11/24 06:28:09;;;;;;;3.45;0.40;;;3.00;99.90;;;;;;5051269;28;20064;-79
2023/11/24 06:30:35;;;;;;;7.47;0.82;;;3.00;99.90;;;;;;5047721;28;20038;-79
2023/11/24 06:33:01;;;;;;;7.82;1.00;;;3.00;99.90;;;;;;5052284;28;20040;-79
2023/11/24 06:35:26;;;;;;;1.58;0.40;;;2.90;99.90;;;;;;5041780;28;20743;-79
2023/11/24 06:37:52;;;;;;;4.35;0.43;;;2.90;99.90;;;;;;5049708;28;20029;-79
2023/11/24 06:40:19;;;;;;;3.28;0.40;;;2.90;99.90;;;;;;5033731;28;20271;-79
2023/11/24 06:42:45;;;;;;;2.47;0.50;;;2.90;99.90;;;;;;5046735;28;20491;-79
2023/11/24 06:45:13;;;;;;;4.68;0.68;;;2.90;99.90;;;;;;5043770;28;20030;-79
2023/11/24 06:47:40;;;;;;;6.25;0.55;;;2.90;99.90;;;;;;5053593;28;20436;-79
2023/11/24 06:50:12;;;;;;;2.50;0.50;;;2.90;99.90;;;;;;5046251;28;20037;-79
2023/11/24 06:52:39;;;;;;;6.43;0.75;;;2.90;99.90;;;;;;5058916;28;20033;-79
2023/11/24 06:55:06;;;;;;;5.20;0.70;;;2.90;99.90;;;;;;5035843;28;20025;-79
2023/11/24 06:57:32;;;;;;;7.22;1.05;;;2.90;99.90;;;;;;5053200;28;20033;-79
2023/11/24 06:59:58;;;;;;;8.75;1.25;;;2.90;99.90;;;;;;5045828;28;20112;-79
2023/11/24 07:02:24;;;;;;;2.20;0.70;;;2.90;99.90;;;;;;5044019;28;20056;-79
2023/11/24 07:04:49;;;;;;;6.65;1.00;;;2.90;99.90;;;;;;5042811;28;20495;-79
2023/11/24 07:07:16;;;;;;;17.58;1.65;;;2.90;99.90;;;;;;5039989;28;20041;-79
2023/11/24 07:09:42;;;;;;;9.70;0.80;;;3.00;99.90;;;;;;5043073;28;20034;-79
2023/11/24 07:12:12;;;;;;;9.20;0.68;;;3.00;99.90;;;;;;5038290;28;20391;-79
2023/11/24 07:14:38;;;;;;;13.60;0.70;;;3.00;99.90;;;;;;5038382;28;20063;-80
2023/11/24 07:17:05;;;;;;;2.08;0.63;;;3.00;99.90;;;;;;5040396;28;20029;-79
2023/11/24 07:19:31;;;;;;;4.80;0.80;;;3.00;99.90;;;;;;5039836;28;20691;-79
2023/11/24 07:21:57;;;;;;;3.50;0.80;;;3.10;99.90;;;;;;5043677;28;20029;-79
2023/11/24 07:24:23;;;;;;;13.38;0.98;;;3.10;99.90;;;;;;5044409;28;20080;-79
2023/11/24 07:26:49;;;;;;;6.90;1.77;;;3.20;99.90;;;;;;5039846;28;20041;-79
2023/11/24 07:29:15;;;;;;;5.05;0.80;;;3.20;99.90;;;;;;5047850;28;20040;-79
2023/11/24 07:31:41;;;;;;;6.70;0.70;;;3.20;99.90;;;;;;5039282;28;20521;-79
2023/11/24 07:34:07;;;;;;;10.10;0.98;;;3.30;99.90;;;;;;5041586;28;20034;-78
2023/11/24 07:36:32;;;;;;;13.50;0.98;;;3.30;99.90;;;;;;5039483;28;20034;-79
2023/11/24 07:38:58;;;;;;;5.75;0.65;;;3.30;99.90;;;;;;5061754;28;20112;-79
2023/11/24 07:41:24;;;;;;;3.17;0.70;;;3.30;99.90;;;;;;5041051;28;20053;-79
2023/11/24 07:43:50;;;;;;;5.72;0.73;;;3.30;99.90;;;;;;5042573;28;20037;-79
2023/11/24 07:46:17;;;;;;;3.75;0.93;;;3.40;99.90;;;;;;5047085;28;20031;-79
2023/11/24 07:48:43;;;;;;;7.53;1.02;;;3.40;99.90;;;;;;5044725;28;20064;-79
2023/11/24 07:51:10;;;;;;;9.88;1.25;;;3.40;99.90;;;;;;5031434;28;20483;-79
2023/11/24 07:53:35;;;;;;;10.73;1.00;;;3.40;99.90;;;;;;5041121;28;20057;-79
2023/11/24 07:56:03;;;;;;;8.80;1.00;;;3.40;99.90;;;;;;5048080;28;20059;-79
2023/11/24 07:58:29;;;;;;;7.55;0.95;;;3.40;99.90;;;;;;5045756;28;20033;-79
2023/11/24 08:00:55;;;;;;;11.40;1.20;;;3.40;99.90;;;;;;5046238;28;20117;-79
2023/11/24 08:03:22;;;;;;;6.50;0.95;;;3.50;99.90;;;;;;5042967;28;20036;-79
2023/11/24 08:05:52;;;;;;;8.02;0.90;;;3.50;99.90;;;;;;5039940;28;20025;-79
2023/11/24 08:08:18;;;;;;;9.27;0.80;;;3.60;99.90;;;;;;5046728;28;20060;-79
2023/11/24 08:10:44;;;;;;;7.93;1.40;;;3.60;99.90;;;;;;5045539;28;20098;-79
2023/11/24 08:13:10;;;;;;;8.05;1.38;;;3.60;99.90;;;;;;5049640;28;20446;-79
2023/11/24 08:15:36;;;;;;;6.38;1.38;;;3.60;99.90;;;;;;5043411;28;20033;-80
2023/11/24 08:18:01;;;;;;;9.57;1.15;;;3.70;99.90;;;;;;5044930;28;20033;-80
2023/11/24 08:20:28;;;;;;;11.05;1.25;;;3.70;99.90;;;;;;5044328;28;20062;-80
2023/11/24 08:22:54;;;;;;;4.97;0.93;;;3.70;99.90;;;;;;5042721;28;20025;-80
2023/11/24 08:25:19;;;;;;;10.60;1.20;;;3.80;99.90;;;;;;5041742;28;20025;-80
2023/11/24 08:27:46;;;;;;;6.47;1.27;;;3.80;99.90;;;;;;5042859;28;20030;-80
2023/11/24 08:30:12;;;;;;;5.32;1.10;;;3.90;99.90;;;;;;5040127;28;20033;-79
2023/11/24 08:32:39;;;;;;;6.72;1.13;;;3.90;99.90;;;;;;5040188;28;20028;-79
2023/11/24 08:35:06;;;;;;;6.78;0.90;;;3.90;99.90;;;;;;5037236;28;20029;-78
2023/11/24 08:37:34;;;;;;;9.10;1.20;;;3.90;99.90;;;;;;5040350;28;20037;-79
2023/11/24 08:40:04;;;;;;;9.77;0.98;;;3.90;99.90;;;;;;5042337;28;20018;-79
2023/11/24 08:42:31;;;;;;;6.40;0.80;;;4.00;99.90;;;;;;5046359;28;20049;-79
2023/11/24 08:44:57;;;;;;;9.02;1.33;;;4.10;99.90;;;;;;5038388;28;20044;-78
2023/11/24 08:47:27;;;;;;;12.60;2.10;;;4.10;99.90;;;;;;5041340;28;20033;-79
2023/11/24 08:49:53;;;;;;;6.82;1.20;;;4.20;99.90;;;;;;5045444;28;20068;-79
2023/11/24 08:52:19;;;;;;;4.57;1.02;;;4.30;99.90;;;;;;5040010;28;20029;-79
2023/11/24 08:54:45;;;;;;;8.95;1.52;;;4.30;99.90;;;;;;5031037;28;20072;-79
2023/11/24 08:57:11;;;;;;;12.20;1.30;;;4.30;99.90;;;;;;5041789;28;20041;-80
2023/11/24 08:59:37;;;;;;;9.38;1.25;;;4.30;99.90;;;;;;5034009;28;20728;-79
2023/11/24 09:02:04;;;;;;;7.72;1.33;;;4.30;99.90;;;;;;5044813;28;20025;-80
2023/11/24 09:04:32;;;;;;;10.45;1.38;;;4.30;99.90;;;;;;5043305;28;20029;-80
2023/11/24 09:06:58;;;;;;;8.80;1.10;;;4.30;99.90;;;;;;5037262;28;20041;-80
2023/11/24 09:09:24;;;;;;;11.30;1.92;;;4.30;99.90;;;;;;5043771;28;20037;-80
2023/11/24 09:11:50;;;;;;;6.80;1.20;;;4.30;99.90;;;;;;5044168;28;20511;-81
2023/11/24 09:14:16;;;;;;;4.30;0.95;;;4.30;99.90;;;;;;5037157;28;20043;-81
2023/11/24 09:16:41;;;;;;;4.72;0.68;;;4.20;99.90;;;;;;5037701;28;20033;-80
2023/11/24 09:19:08;;;;;;;7.05;1.05;;;4.10;99.90;;;;;;5040503;28;20479;-80
2023/11/24 09:21:34;;;;;;;9.35;1.40;;;4.10;99.90;;;;;;5040615;28;20024;-80
2023/11/24 09:24:01;;;;;;;6.13;0.70;;;4.00;99.90;;;;;;5039132;28;20552;-79
2023/11/24 09:26:28;;;;;;;6.38;1.10;;;4.10;99.90;;;;;;5045102;28;20623;-79
2023/11/24 09:28:54;;;;;;;9.70;1.33;;;4.10;99.90;;;;;;5041761;28;20025;-80
2023/11/24 09:31:19;;;;;;;5.93;1.50;;;4.10;99.90;;;;;;5039996;28;20029;-79
2023/11/24 09:33:45;;;;;;;7.10;1.20;;;4.10;99.90;;;;;;5039811;28;20484;-78
2023/11/24 09:36:14;;;;;;;7.25;1.40;;;4.10;99.90;;;;;;5031032;28;20535;-79
2023/11/24 09:38:40;;;;;;;3.85;1.20;;;4.10;99.90;;;;;;5038237;28;20082;-79
2023/11/24 09:41:11;;;;;;;13.00;1.73;;;4.10;99.90;;;;;;5037156;28;20029;-80
2023/11/24 09:43:40;;;;;;;51.13;2.83;;;4.10;99.90;;;;;;5035310;28;20076;-80
2023/11/24 09:46:07;;;;;;;6.72;1.15;;;4.10;99.90;;;;;;5038101;28;20124;-81
2023/11/24 09:48:34;;;;;;;4.95;1.67;;;4.20;99.90;;;;;;5044699;28;20040;-82
2023/11/24 09:51:03;;;;;;;8.15;1.38;;;4.20;99.90;;;;;;5036375;28;20021;-81
2023/11/24 09:53:36;;;;;;;9.93;1.73;;;4.20;99.90;;;;;;5048961;28;20055;-81
2023/11/24 09:56:02;;;;;;;6.93;1.30;;;4.30;99.90;;;;;;5049687;28;20021;-81
2023/11/24 09:58:30;;;;;;;5.25;1.40;;;4.20;99.90;;;;;;5051201;28;20029;-81
2023/11/24 10:01:06;;;;;;;4.18;1.10;;;4.30;99.90;;;;;;5036139;28;20061;-81
2023/11/24 10:03:38;;;;;;;7.28;1.35;;;4.30;99.90;;;;;;5052495;28;20021;-81
2023/11/24 10:06:07;;;;;;;7.18;1.00;;;4.30;99.90;;;;;;5011140;28;1257413;-81
2023/11/24 10:08:35;;;;;;;5.68;1.20;;;4.30;99.90;;;;;;5049669;28;20049;-81
2023/11/24 10:11:27;;;;;;;7.53;1.20;;;4.50;99.90;;;;;;5046263;28;20064;-81
2023/11/24 10:13:55;;;;;;;6.68;1.55;;;4.50;99.90;;;;;;5046648;28;20084;-81
2023/11/24 10:16:22;;;;;;;7.18;1.50;;;4.70;99.90;;;;;;5042681;28;20028;-81
2023/11/24 10:18:49;;;;;;;7.32;1.35;;;4.70;99.90;;;;;;5047327;28;20030;-80
2023/11/24 10:21:15;;;;;;;4.78;1.23;;;4.80;99.90;;;;;;5052155;28;20035;-80
2023/11/24 10:23:41;;;;;;;6.28;1.52;;;4.80;99.90;;;;;;5045440;28;20026;-80
2023/11/24 10:26:16;;;;;;;3.85;1.17;;;4.70;99.90;;;;;;5043380;28;20403;-80
2023/11/24 10:28:44;;;;;;;;;;;4.70;99.90;;;;;;5053446;28;20021;-80
2023/11/24 10:31:12;;;;;;;8.13;1.38;;;4.60;99.90;;;;;;5044327;28;20394;-80
2023/11/24 10:33:43;;;;;;;7.05;1.00;;;4.50;99.90;;;;;;5046098;28;20064;-81
2023/11/24 10:36:09;;;;;;;7.80;1.15;;;4.50;99.90;;;;;;5039902;28;20032;-80
2023/11/24 10:38:39;;;;;;;6.88;1.20;;;4.50;99.90;;;;;;5041953;28;20029;-81
2023/11/24 10:41:18;;;;;;;3.47;1.25;;;4.40;99.90;;;;;;5042389;28;20143;-81
2023/11/24 10:43:48;;;;;;;7.32;1.77;;;4.40;99.90;;;;;;5046481;28;20544;-80
2023/11/24 10:46:16;;;;;;;3.53;1.40;;;4.50;99.90;;;;;;5049975;28;20059;-81
2023/11/24 10:48:46;;;;;;;4.65;1.40;;;4.70;99.90;;;;;;5035608;28;20051;-79
2023/11/24 10:51:39;;;;;;;4.85;1.13;;;4.70;99.90;;;;;;5044125;28;20036;-80
2023/11/24 10:54:07;;;;;;;7.55;1.48;;;4.90;99.90;;;;;;5039179;28;20099;-79
2023/11/24 10:56:36;;;;;;;2.58;0.70;;;5.00;99.90;;;;;;5036871;28;20091;-79
2023/11/24 10:59:08;;;;;;;4.20;1.23;;;5.10;99.90;;;;;;5045147;28;20440;-79
2023/11/24 11:01:34;;;;;;;4.80;1.17;;;5.10;99.90;;;;;;5042708;28;20029;-80
2023/11/24 11:04:00;;;;;;;2.67;0.57;;;5.10;99.90;;;;;;5042903;28;20630;-80
2023/11/24 11:06:48;;;;;;;3.00;0.70;;;5.00;99.90;;;;;;5041475;28;20051;-80
2023/11/24 11:11:50;;;;;;;4.30;0.80;;;4.90;99.90;;;;;;5042678;28;20107;-80
2023/11/24 11:14:18;;;;;;;3.08;0.70;;;4.70;99.90;;;;;;5043704;28;20078;-80
2023/11/24 11:16:44;;;;;;;2.00;0.40;;;4.70;99.90;;;;;;5044385;28;20025;-81
2023/11/24 11:19:32;;;;;;;2.15;0.60;;;4.60;99.90;;;;;;5039897;28;20387;-80
2023/11/24 11:22:04;;;;;;;4.60;0.80;;;4.50;99.90;;;;;;5038715;28;20546;-81
2023/11/24 11:24:30;;;;;;;1.60;0.73;;;4.40;99.90;;;;;;5042322;28;20021;-80
2023/11/24 11:26:57;;;;;;;5.88;0.55;;;4.40;99.90;;;;;;5040206;28;20040;-80
2023/11/24 11:29:26;;;;;;;5.35;0.82;;;4.30;99.90;;;;;;5040109;28;20730;-80
2023/11/24 11:31:55;;;;;;;0.82;0.40;;;4.30;99.90;;;;;;5045735;28;20175;-81
2023/11/24 11:34:32;;;;;;;5.32;0.70;;;4.20;99.90;;;;;;5043030;28;20052;-80
2023/11/24 11:37:13;;;;;;;1.20;0.70;;;4.20;99.90;;;;;;5043005;28;20499;-79
2023/11/24 11:39:58;;;;;;;1.63;0.70;;;4.20;99.90;;;;;;5039188;28;20129;-81
2023/11/24 11:42:51;;;;;;;1.53;0.57;;;4.30;99.90;;;;;;5039398;28;20025;-81
2023/11/24 11:45:20;;;;;;;4.35;1.20;;;4.30;99.90;;;;;;5007755;28;20090;-82
2023/11/24 11:47:52;;;;;;;3.15;1.00;;;4.40;99.90;;;;;;5041921;28;20140;-81
2023/11/24 11:50:24;;;;;;;4.85;1.00;;;4.40;99.90;;;;;;5046543;28;20029;-81
2023/11/24 11:52:51;;;;;;;3.25;1.13;;;4.40;99.90;;;;;;5043639;28;20453;-80
2023/11/24 11:55:19;;;;;;;7.07;1.00;;;4.40;99.90;;;;;;5036737;28;20022;-80
2023/11/24 11:57:55;;;;;;;3.38;1.00;;;4.50;99.90;;;;;;5050476;28;20029;-81
2023/11/24 12:00:28;;;;;;;6.53;1.17;;;4.50;99.90;;;;;;5050645;28;20033;-81
2023/11/24 12:02:54;;;;;;;5.75;0.95;;;4.60;99.90;;;;;;5048477;28;20089;-81
2023/11/24 12:05:24;;;;;;;1.88;0.90;;;4.60;99.90;;;;;;5047970;28;20037;-82
2023/11/24 12:07:51;;;;;;;2.13;1.00;;;4.60;99.90;;;;;;5049140;28;20028;-80
2023/11/24 12:10:17;;;;;;;6.53;1.20;;;4.70;99.90;;;;;;5054152;28;20037;-80
2023/11/24 12:12:44;;;;;;;4.95;1.02;;;4.70;99.90;;;;;;5040439;28;20033;-81
2023/11/24 12:15:10;;;;;;;5.07;1.20;;;4.70;99.90;;;;;;5041226;28;20510;-81
2023/11/24 12:17:38;;;;;;;3.47;1.25;;;4.60;99.90;;;;;;5045936;28;20079;-82
2023/11/24 12:20:10;;;;;;;4.75;1.27;;;4.60;99.90;;;;;;5042555;28;20113;-82
2023/11/24 12:22:39;;;;;;;4.00;1.05;;;4.60;99.90;;;;;;5035022;28;20042;-81
2023/11/24 12:25:10;;;;;;;2.83;1.00;;;4.60;99.90;;;;;;5052670;28;20025;-82
2023/11/24 12:27:36;;;;;;;2.90;0.85;;;4.60;99.90;;;;;;5048945;28;20059;-82
2023/11/24 12:30:10;;;;;;;4.70;1.20;;;4.60;99.90;;;;;;5055925;28;20124;-81
2023/11/24 12:32:37;;;;;;;2.00;1.05;;;4.50;99.90;;;;;;5041347;28;20496;-82
2023/11/24 12:35:07;;;;;;;1.75;1.00;;;4.50;99.90;;;;;;5041838;28;20444;-81
2023/11/24 12:37:34;;;;;;;5.00;1.33;;;4.40;99.90;;;;;;5051778;28;20091;-82
2023/11/24 12:40:00;;;;;;;3.10;0.60;;;4.40;99.90;;;;;;5047747;28;20032;-81
2023/11/24 12:42:30;;;;;;;2.65;0.70;;;4.30;99.90;;;;;;5046540;28;20029;-83
2023/11/24 12:45:02;;;;;;;1.05;0.47;;;4.10;99.90;;;;;;5047597;28;20021;-83
2023/11/24 12:47:28;;;;;;;1.73;0.90;;;3.90;99.90;;;;;;5047964;28;20036;-83
2023/11/24 12:50:11;;;;;;;0.52;0.38;;;3.70;99.90;;;;;;5046783;28;20724;-82
2023/11/24 12:52:39;;;;;;;0.55;0.35;;;3.40;99.90;;;;;;5039241;28;20030;-82
2023/11/24 12:55:08;;;;;;;1.95;0.50;;;3.40;99.90;;;;;;5050166;28;20029;-82
2023/11/24 12:57:38;;;;;;;0.60;0.30;;;3.40;99.90;;;;;;5050381;28;20044;-82
2023/11/24 13:00:09;;;;;;;0.70;0.30;;;3.40;99.90;;;;;;5048575;28;20035;-82